createdAt,value
2023-07-18T00:00:06.221Z,9.93
2023-07-18T00:01:46.791Z,9.99
2023-07-18T00:03:27.252Z,9.95
2023-07-18T00:05:07.738Z,9.89
2023-07-18T00:06:48.223Z,9.85
2023-07-18T00:08:28.631Z,9.78
2023-07-18T00:10:08.944Z,9.77
2023-07-18T00:11:49.222Z,9.72
2023-07-18T00:13:29.550Z,9.68
2023-07-18T00:15:09.884Z,9.62
2023-07-18T00:16:50.305Z,9.61
2023-07-18T00:18:30.776Z,9.52
2023-07-18T00:20:11.172Z,9.44
2023-07-18T00:21:51.650Z,9.41
2023-07-18T00:23:32.064Z,9.38
2023-07-18T00:25:12.570Z,9.35
2023-07-18T00:26:52.952Z,9.33
2023-07-18T00:28:33.427Z,9.27
2023-07-18T00:30:13.843Z,9.26
2023-07-18T00:31:54.254Z,9.21
2023-07-18T00:33:34.725Z,9.19
2023-07-18T00:35:15.215Z,9.16
2023-07-18T00:36:55.709Z,9.11
2023-07-18T00:38:36.041Z,9.1
2023-07-18T00:40:16.539Z,9.07
2023-07-18T00:41:56.802Z,9.11
2023-07-18T00:43:37.231Z,9.19
2023-07-18T00:45:17.755Z,9.2
2023-07-18T00:46:58.245Z,9.21
2023-07-18T00:48:38.716Z,9.2
2023-07-18T00:50:19.317Z,9.26
2023-07-18T00:51:59.690Z,9.31
2023-07-18T00:53:40.039Z,9.31
2023-07-18T00:55:20.477Z,9.27
2023-07-18T00:57:00.881Z,9.23
2023-07-18T00:58:41.351Z,9.23
2023-07-18T01:00:21.789Z,9.24
2023-07-18T01:02:02.157Z,9.23
2023-07-18T01:03:42.621Z,9.23
2023-07-18T01:05:23.000Z,9.3
2023-07-18T01:07:03.468Z,9.38
2023-07-18T01:08:43.851Z,9.44
2023-07-18T01:10:24.397Z,9.5
2023-07-18T01:12:04.726Z,9.51
2023-07-18T01:13:45.164Z,9.54
2023-07-18T01:15:25.717Z,9.55
2023-07-18T01:17:06.124Z,9.51
2023-07-18T01:18:46.603Z,9.51
2023-07-18T01:20:27.051Z,9.55
2023-07-18T01:22:07.472Z,9.57
2023-07-18T01:23:47.885Z,9.63
2023-07-18T01:25:28.197Z,9.69
2023-07-18T01:27:08.480Z,9.75
2023-07-18T01:28:48.879Z,9.79
2023-07-18T01:30:29.299Z,9.84
2023-07-18T01:32:09.710Z,9.86
2023-07-18T01:33:50.229Z,9.93
2023-07-18T01:35:30.649Z,9.93
2023-07-18T01:37:11.122Z,10
2023-07-18T01:38:51.538Z,10.03
2023-07-18T01:40:32.035Z,10.05
2023-07-18T01:42:12.467Z,10.06
2023-07-18T01:43:52.915Z,10.06
2023-07-18T01:45:33.348Z,10.12
2023-07-18T01:47:13.899Z,10.09
2023-07-18T01:48:54.376Z,10.13
2023-07-18T01:50:34.766Z,10.14
2023-07-18T01:52:15.190Z,10.16
2023-07-18T01:53:55.603Z,10.19
2023-07-18T01:55:36.000Z,10.21
2023-07-18T01:57:16.442Z,10.23
2023-07-18T01:58:56.893Z,10.24
2023-07-18T02:00:37.396Z,10.27
2023-07-18T02:02:17.837Z,10.29
2023-07-18T02:03:58.244Z,10.3
2023-07-18T02:05:38.541Z,10.32
2023-07-18T02:07:18.846Z,10.35
2023-07-18T02:08:59.147Z,10.37
2023-07-18T02:10:39.451Z,10.39
2023-07-18T02:12:19.742Z,10.35
2023-07-18T02:14:00.223Z,10.36
2023-07-18T02:15:40.628Z,10.35
2023-07-18T02:17:21.036Z,10.33
2023-07-18T02:19:01.477Z,10.26
2023-07-18T02:20:41.844Z,10.26
2023-07-18T02:22:22.353Z,10.2
2023-07-18T02:24:02.735Z,10.12
2023-07-18T02:25:43.170Z,10.12
2023-07-18T02:27:23.622Z,10.1
2023-07-18T02:29:04.047Z,10.12
2023-07-18T02:30:44.570Z,10.1
2023-07-18T02:32:25.050Z,10.07
2023-07-18T02:34:05.381Z,10.06
2023-07-18T02:35:45.842Z,10.06
2023-07-18T02:37:26.233Z,10.02
2023-07-18T02:39:06.564Z,9.98
2023-07-18T02:40:46.976Z,9.86
2023-07-18T02:42:27.432Z,9.78
2023-07-18T02:44:07.848Z,9.74
2023-07-18T02:45:50.609Z,9.63
2023-07-18T02:47:28.694Z,9.59
2023-07-18T02:49:09.106Z,9.52
2023-07-18T02:50:49.492Z,9.47
2023-07-18T02:52:29.939Z,9.41
2023-07-18T02:54:10.356Z,9.38
2023-07-18T02:55:50.845Z,9.44
2023-07-18T02:57:31.304Z,9.41
2023-07-18T02:59:11.726Z,9.35
2023-07-18T03:00:52.099Z,9.3
2023-07-18T03:02:32.721Z,9.21
2023-07-18T03:04:12.906Z,9.23
2023-07-18T03:05:53.338Z,9.2
2023-07-18T03:07:33.645Z,9.23
2023-07-18T03:09:13.923Z,9.27
2023-07-18T03:10:54.318Z,9.29
2023-07-18T03:12:34.757Z,9.27
2023-07-18T03:14:15.127Z,9.24
2023-07-18T03:15:55.560Z,9.24
2023-07-18T03:17:36.064Z,9.24
2023-07-18T03:19:16.533Z,9.19
2023-07-18T03:20:56.999Z,9.16
2023-07-18T03:22:37.518Z,9.16
2023-07-18T03:24:19.430Z,9.13
2023-07-18T03:25:58.468Z,9.09
2023-07-18T03:27:38.914Z,9.09
2023-07-18T03:29:19.320Z,9.04
2023-07-18T03:30:59.753Z,9
2023-07-18T03:32:40.133Z,8.96
2023-07-18T03:34:20.469Z,8.9
2023-07-18T03:36:00.764Z,8.9
2023-07-18T03:37:41.124Z,8.99
2023-07-18T03:39:21.636Z,8.96
2023-07-18T03:41:02.162Z,8.98
2023-07-18T03:42:42.563Z,9.07
2023-07-18T03:44:23.060Z,9.11
2023-07-18T03:46:03.499Z,9.16
2023-07-18T03:47:43.955Z,9.2
2023-07-18T03:49:24.356Z,9.19
2023-07-18T03:51:04.810Z,9.2
2023-07-18T03:52:45.280Z,9.2
2023-07-18T03:54:25.749Z,9.2
2023-07-18T03:56:06.206Z,9.2
2023-07-18T03:57:46.616Z,9.24
2023-07-18T03:59:27.071Z,9.3
2023-07-18T04:01:07.375Z,9.33
2023-07-18T04:02:47.887Z,9.34
2023-07-18T04:04:28.051Z,9.34
2023-07-18T04:06:08.531Z,9.31
2023-07-18T04:07:49.129Z,9.26
2023-07-18T04:09:29.448Z,9.23
2023-07-18T04:11:09.948Z,9.19
2023-07-18T04:12:50.386Z,9.19
2023-07-18T04:14:30.778Z,9.19
2023-07-18T04:16:11.265Z,9.2
2023-07-18T04:17:51.806Z,9.21
2023-07-18T04:19:32.224Z,9.24
2023-07-18T04:21:12.753Z,9.24
2023-07-18T04:22:53.178Z,9.31
2023-07-18T04:24:33.605Z,9.34
2023-07-18T04:26:13.892Z,9.4
2023-07-18T04:27:54.203Z,9.42
2023-07-18T04:29:34.498Z,9.42
2023-07-18T04:31:17.066Z,9.44
2023-07-18T04:32:55.134Z,9.5
2023-07-18T04:34:35.390Z,9.52
2023-07-18T04:36:15.651Z,9.54
2023-07-18T04:37:56.122Z,9.62
2023-07-18T04:39:36.565Z,9.65
2023-07-18T04:41:17.465Z,9.68
2023-07-18T04:42:57.440Z,9.74
2023-07-18T04:44:37.941Z,9.79
2023-07-18T04:46:18.500Z,9.82
2023-07-18T04:47:58.903Z,9.88
2023-07-18T04:49:39.285Z,9.95
2023-07-18T04:51:19.844Z,9.96
2023-07-18T04:53:00.144Z,10.02
2023-07-18T04:54:40.635Z,10.03
2023-07-18T04:56:21.143Z,10.05
2023-07-18T04:58:01.571Z,10.07
2023-07-18T04:59:41.856Z,10.13
2023-07-18T05:01:22.486Z,10.19
2023-07-18T05:03:02.772Z,10.2
2023-07-18T05:04:43.159Z,10.24
2023-07-18T05:06:23.493Z,10.3
2023-07-18T05:08:03.901Z,10.35
2023-07-18T05:09:44.319Z,10.44
2023-07-18T05:11:24.756Z,10.47
2023-07-18T05:13:05.162Z,10.53
2023-07-18T05:14:45.688Z,10.58
2023-07-18T05:16:26.152Z,10.65
2023-07-18T05:18:06.609Z,10.67
2023-07-18T05:19:47.045Z,10.75
2023-07-18T05:21:27.488Z,10.84
2023-07-18T05:23:07.984Z,10.86
2023-07-18T05:24:48.435Z,10.96
2023-07-18T05:26:28.817Z,11.02
2023-07-18T05:28:09.116Z,11.11
2023-07-18T05:29:49.465Z,11.15
2023-07-18T05:31:29.824Z,11.25
2023-07-18T05:33:10.123Z,11.27
2023-07-18T05:34:50.515Z,11.33
2023-07-18T05:36:30.965Z,11.37
2023-07-18T05:38:11.515Z,11.42
2023-07-18T05:39:51.960Z,11.47
2023-07-18T05:41:32.401Z,11.56
2023-07-18T05:43:12.909Z,11.6
2023-07-18T05:44:53.331Z,11.63
2023-07-18T05:46:33.823Z,11.7
2023-07-18T05:48:14.300Z,11.76
2023-07-18T05:49:54.631Z,11.82
2023-07-18T05:51:35.116Z,11.9
2023-07-18T05:53:15.500Z,11.94
2023-07-18T05:54:55.899Z,12.14
2023-07-18T05:56:36.379Z,12.32
2023-07-18T05:58:16.850Z,12.48
2023-07-18T05:59:57.338Z,12.67
2023-07-18T06:01:37.737Z,12.84
2023-07-18T06:03:18.208Z,13.08
2023-07-18T06:04:58.662Z,13.27
2023-07-18T06:06:39.061Z,13.42
2023-07-18T06:08:19.506Z,13.54
2023-07-18T06:09:59.997Z,13.7
2023-07-18T06:11:40.359Z,13.86
2023-07-18T06:13:20.871Z,13.97
2023-07-18T06:15:01.244Z,14.13
2023-07-18T06:16:41.625Z,14.25
2023-07-18T06:18:22.146Z,14.4
2023-07-18T06:20:02.483Z,14.52
2023-07-18T06:21:42.891Z,14.59
2023-07-18T06:23:23.418Z,14.68
2023-07-18T06:25:03.930Z,14.82
2023-07-18T06:26:44.397Z,14.93
2023-07-18T06:28:24.868Z,15.06
2023-07-18T06:30:05.358Z,15.19
2023-07-18T06:31:45.761Z,15.33
2023-07-18T06:33:26.043Z,15.43
2023-07-18T06:35:22.411Z,15.51
2023-07-18T06:36:47.231Z,15.61
2023-07-18T06:38:27.147Z,15.77
2023-07-18T06:40:07.579Z,15.85
2023-07-18T06:41:48.034Z,15.88
2023-07-18T06:43:28.480Z,15.99
2023-07-18T06:45:08.927Z,16.05
2023-07-18T06:46:49.453Z,16.15
2023-07-18T06:48:29.869Z,16.3
2023-07-18T06:50:10.276Z,16.42
2023-07-18T06:51:50.830Z,16.52
2023-07-18T06:53:31.260Z,16.64
2023-07-18T06:55:11.764Z,16.77
2023-07-18T06:56:51.928Z,16.9
2023-07-18T06:58:32.205Z,17.04
2023-07-18T07:00:12.674Z,17.19
2023-07-18T07:01:53.107Z,17.33
2023-07-18T07:03:33.695Z,17.42
2023-07-18T07:05:14.026Z,17.52
2023-07-18T07:06:54.384Z,17.63
2023-07-18T07:08:34.824Z,17.74
2023-07-18T07:10:15.204Z,17.9
2023-07-18T07:11:55.750Z,17.98
2023-07-18T07:13:36.112Z,18.07
2023-07-18T07:15:16.434Z,18.18
2023-07-18T07:16:56.870Z,18.18
2023-07-18T07:18:37.248Z,18.34
2023-07-18T07:20:17.733Z,18.52
2023-07-18T07:21:58.174Z,18.69
2023-07-18T07:23:38.665Z,18.79
2023-07-18T07:25:19.128Z,19.03
2023-07-18T07:26:59.642Z,19.15
2023-07-18T07:28:40.103Z,19.25
2023-07-18T07:30:20.514Z,19.41
2023-07-18T07:32:01.000Z,19.62
2023-07-18T07:33:41.461Z,19.76
2023-07-18T07:35:21.869Z,19.9
2023-07-18T07:37:02.212Z,20.12
2023-07-18T07:38:42.609Z,20.21
2023-07-18T07:40:23.046Z,20.3
2023-07-18T07:42:03.528Z,20.37
2023-07-18T07:43:43.912Z,20.48
2023-07-18T07:45:24.423Z,20.79
2023-07-18T07:47:04.830Z,21.02
2023-07-18T07:48:45.310Z,21.21
2023-07-18T07:50:25.746Z,21.4
2023-07-18T07:52:06.187Z,21.53
2023-07-18T07:53:46.614Z,21.54
2023-07-18T07:55:26.963Z,21.82
2023-07-18T07:57:07.383Z,22.01
2023-07-18T07:58:57.428Z,22.21
2023-07-18T08:00:28.247Z,22.42
2023-07-18T08:02:08.617Z,22.6
2023-07-18T08:03:48.849Z,22.52
2023-07-18T08:05:29.235Z,22.58
2023-07-18T08:07:11.714Z,22.85
2023-07-18T08:08:50.109Z,23.07
2023-07-18T08:10:30.546Z,23.29
2023-07-18T08:12:11.017Z,23.52
2023-07-18T08:13:51.447Z,23.66
2023-07-18T08:15:31.853Z,23.8
2023-07-18T08:17:12.438Z,23.96
2023-07-18T08:18:52.911Z,24.1
2023-07-18T08:20:33.393Z,24.25
2023-07-18T08:22:13.809Z,24.52
2023-07-18T08:23:54.289Z,24.72
2023-07-18T08:25:34.571Z,24.83
2023-07-18T08:27:14.866Z,25
2023-07-18T08:28:55.231Z,25.2
2023-07-18T08:30:35.443Z,25.05
2023-07-18T08:32:15.764Z,25.26
2023-07-18T08:33:56.267Z,25.56
2023-07-18T08:35:36.706Z,25.68
2023-07-18T08:37:17.141Z,25.68
2023-07-18T08:38:57.611Z,25.85
2023-07-18T08:40:38.071Z,25.95
2023-07-18T08:42:18.516Z,26.02
2023-07-18T08:43:58.992Z,25.98
2023-07-18T08:45:39.447Z,26.12
2023-07-18T08:47:19.900Z,26.38
2023-07-18T08:49:00.467Z,26.52
2023-07-18T08:50:40.842Z,26.67
2023-07-18T08:52:21.171Z,26.7
2023-07-18T08:54:01.455Z,26.89
2023-07-18T08:55:41.877Z,26.98
2023-07-18T08:57:22.312Z,27.32
2023-07-18T08:59:02.772Z,27.45
2023-07-18T09:00:43.242Z,27.45
2023-07-18T09:02:23.717Z,27.46
2023-07-18T09:04:04.166Z,27.62
2023-07-18T09:05:44.486Z,27.73
2023-07-18T09:07:25.006Z,27.63
2023-07-18T09:09:05.373Z,27.21
2023-07-18T09:10:45.817Z,26.87
2023-07-18T09:12:26.256Z,26.71
2023-07-18T09:14:06.648Z,26.87
2023-07-18T09:15:47.222Z,27.17
2023-07-18T09:17:27.817Z,27.01
2023-07-18T09:19:08.166Z,27.01
2023-07-18T09:20:48.675Z,27.31
2023-07-18T09:22:29.178Z,27.48
2023-07-18T09:24:09.502Z,27.56
2023-07-18T09:25:49.843Z,27.83
2023-07-18T09:27:30.255Z,28.03
2023-07-18T09:29:10.763Z,28.33
2023-07-18T09:30:51.155Z,28.56
2023-07-18T09:32:31.641Z,28.5
2023-07-18T09:34:12.081Z,28.35
2023-07-18T09:35:52.538Z,27.99
2023-07-18T09:37:32.976Z,27.55
2023-07-18T09:39:13.467Z,27.56
2023-07-18T09:40:53.950Z,27.83
2023-07-18T09:42:34.414Z,27.55
2023-07-18T09:44:31.477Z,27.72
2023-07-18T09:45:55.267Z,28
2023-07-18T09:47:35.728Z,28.13
2023-07-18T09:49:16.116Z,28.33
2023-07-18T09:50:56.591Z,28.28
2023-07-18T09:52:37.060Z,27.94
2023-07-18T09:54:17.518Z,28.1
2023-07-18T09:55:57.997Z,28.21
2023-07-18T09:57:38.379Z,28.41
2023-07-18T09:59:18.925Z,28.56
2023-07-18T10:00:59.436Z,28.4
2023-07-18T10:02:39.891Z,28.37
2023-07-18T10:04:20.231Z,28.4
2023-07-18T10:06:00.630Z,28.47
2023-07-18T10:07:40.913Z,28.72
2023-07-18T10:09:21.240Z,29.05
2023-07-18T10:11:01.630Z,29.21
2023-07-18T10:12:41.940Z,29.2
2023-07-18T10:14:22.384Z,28.85
2023-07-18T10:16:02.891Z,28.75
2023-07-18T10:17:43.460Z,28.71
2023-07-18T10:19:23.834Z,28.69
2023-07-18T10:21:04.261Z,28.55
2023-07-18T10:22:44.743Z,28.76
2023-07-18T10:24:25.222Z,28.96
2023-07-18T10:26:07.480Z,28.99
2023-07-18T10:27:46.008Z,29.09
2023-07-18T10:29:26.434Z,29.44
2023-07-18T10:31:06.916Z,29.34
2023-07-18T10:32:47.395Z,29.33
2023-07-18T10:34:27.826Z,29.58
2023-07-18T10:36:08.159Z,29.43
2023-07-18T10:37:48.625Z,29.67
2023-07-18T10:39:29.041Z,29.54
2023-07-18T10:41:09.496Z,29.4
2023-07-18T10:42:49.902Z,29.36
2023-07-18T10:44:30.318Z,29.36
2023-07-18T10:46:10.749Z,29.38
2023-07-18T10:47:51.198Z,29.41
2023-07-18T10:49:31.655Z,29.23
2023-07-18T10:51:12.177Z,28.86
2023-07-18T10:52:52.549Z,28.75
2023-07-18T10:54:32.980Z,28.56
2023-07-18T10:56:13.541Z,28.52
2023-07-18T10:57:53.840Z,28.45
2023-07-18T10:59:34.160Z,28.3
2023-07-18T11:01:14.624Z,28.28
2023-07-18T11:02:55.028Z,28.15
2023-07-18T11:04:35.386Z,27.9
2023-07-18T11:06:15.851Z,27.75
2023-07-18T11:07:56.331Z,27.62
2023-07-18T11:09:36.805Z,27.59
2023-07-18T11:11:17.445Z,27.38
2023-07-18T11:12:57.694Z,27.1
2023-07-18T11:14:38.161Z,26.94
2023-07-18T11:16:18.682Z,26.62
2023-07-18T11:17:59.148Z,26.56
2023-07-18T11:19:39.662Z,26.63
2023-07-18T11:21:20.710Z,26.53
2023-07-18T11:23:00.530Z,26.46
2023-07-18T11:24:40.940Z,26.38
2023-07-18T11:26:21.496Z,26.64
2023-07-18T11:28:01.994Z,26.74
2023-07-18T11:29:42.390Z,26.71
2023-07-18T11:31:38.825Z,26.46
2023-07-18T11:33:03.203Z,26.54
2023-07-18T11:34:43.667Z,27.04
2023-07-18T11:36:24.164Z,27.31
2023-07-18T11:38:04.601Z,27.25
2023-07-18T11:39:45.114Z,27.52
2023-07-18T11:41:25.419Z,27.48
2023-07-18T11:43:05.885Z,27.58
2023-07-18T11:44:46.362Z,27.69
2023-07-18T11:46:26.902Z,27.65
2023-07-18T11:48:07.433Z,28.04
2023-07-18T11:49:47.830Z,27.89
2023-07-18T11:51:28.267Z,28.07
2023-07-18T11:53:08.759Z,28.33
2023-07-18T11:54:49.215Z,28.31
2023-07-18T11:56:29.620Z,28.2
2023-07-18T11:58:10.069Z,27.73
2023-07-18T11:59:50.569Z,27.45
2023-07-18T12:01:31.004Z,27.21
2023-07-18T12:03:11.496Z,27.1
2023-07-18T12:04:51.925Z,27.01
2023-07-18T12:06:32.361Z,26.74
2023-07-18T12:08:12.867Z,26.69
2023-07-18T12:09:53.402Z,26.63
2023-07-18T12:11:33.885Z,26.5
2023-07-18T12:13:14.308Z,26.23
2023-07-18T12:14:54.747Z,26.16
2023-07-18T12:16:35.267Z,26.05
2023-07-18T12:18:15.704Z,25.95
2023-07-18T12:19:56.092Z,25.91
2023-07-18T12:21:36.431Z,25.87
2023-07-18T12:23:16.732Z,25.88
2023-07-18T12:24:57.110Z,26.18
2023-07-18T12:26:37.576Z,26.53
2023-07-18T12:28:18.037Z,26.77
2023-07-18T12:29:58.594Z,27.1
2023-07-18T12:31:39.162Z,27.31
2023-07-18T12:33:19.603Z,27.69
2023-07-18T12:35:00.062Z,27.9
2023-07-18T12:36:40.551Z,28.25
2023-07-18T12:38:23.329Z,28.41
2023-07-18T12:40:01.476Z,28.72
2023-07-18T12:41:41.915Z,28.89
2023-07-18T12:43:22.264Z,29.31
2023-07-18T12:45:02.563Z,29.75
2023-07-18T12:46:42.876Z,29.72
2023-07-18T12:48:23.173Z,29.51
2023-07-18T12:50:03.452Z,29.4
2023-07-18T12:51:43.755Z,29.34
2023-07-18T12:53:24.113Z,29.12
2023-07-18T12:55:04.587Z,29.41
2023-07-18T12:56:45.053Z,29.67
2023-07-18T12:58:25.509Z,29.46
2023-07-18T13:00:05.849Z,29.36
2023-07-18T13:01:46.397Z,29.07
2023-07-18T13:03:26.881Z,28.85
2023-07-18T13:05:07.281Z,28.62
2023-07-18T13:06:47.735Z,28.73
2023-07-18T13:08:28.197Z,28.83
2023-07-18T13:10:08.666Z,28.31
2023-07-18T13:11:49.033Z,28.47
2023-07-18T13:13:29.468Z,28.89
2023-07-18T13:15:09.945Z,29.4
2023-07-18T13:16:50.314Z,29.75
2023-07-18T13:18:30.532Z,30.11
2023-07-18T13:20:10.828Z,30.5
2023-07-18T13:21:51.166Z,30.4
2023-07-18T13:23:31.415Z,30.84
2023-07-18T13:25:11.761Z,30.97
2023-07-18T13:26:52.184Z,31.11
2023-07-18T13:28:32.620Z,31.25
2023-07-18T13:30:13.038Z,30.99
2023-07-18T13:31:53.521Z,31.21
2023-07-18T13:33:33.962Z,31.41
2023-07-18T13:35:14.321Z,31.49
2023-07-18T13:36:54.800Z,31.66
2023-07-18T13:38:35.607Z,31.8
2023-07-18T13:40:15.741Z,31.33
2023-07-18T13:41:56.126Z,31.32
2023-07-18T13:43:36.532Z,30.81
2023-07-18T13:45:16.963Z,30.87
2023-07-18T13:46:57.396Z,30.66
2023-07-18T13:48:37.775Z,30.8
2023-07-18T13:50:30.734Z,30.44
2023-07-18T13:51:58.599Z,30.02
2023-07-18T13:53:39.161Z,29.74
2023-07-18T13:55:19.684Z,29.68
2023-07-18T13:57:00.131Z,29.79
2023-07-18T13:58:40.569Z,29.5
2023-07-18T14:00:21.094Z,29.51
2023-07-18T14:02:01.582Z,29.68
2023-07-18T14:03:42.105Z,29.93
2023-07-18T14:05:22.392Z,30.33
2023-07-18T14:07:02.743Z,30.42
2023-07-18T14:08:43.208Z,30.56
2023-07-18T14:10:23.613Z,30.95
2023-07-18T14:12:03.832Z,31.01
2023-07-18T14:13:44.323Z,30.98
2023-07-18T14:15:24.855Z,30.99
2023-07-18T14:17:05.253Z,31.21
2023-07-18T14:18:45.675Z,31.46
2023-07-18T14:20:26.130Z,31.48
2023-07-18T14:22:06.693Z,31.35
2023-07-18T14:23:47.166Z,31.36
2023-07-18T14:25:27.603Z,31.62
2023-07-18T14:27:08.010Z,31.45
2023-07-18T14:28:48.476Z,31.35
2023-07-18T14:30:28.920Z,31.07
2023-07-18T14:32:09.345Z,30.98
2023-07-18T14:34:04.644Z,30.8
2023-07-18T14:35:29.946Z,30.39
2023-07-18T14:37:10.208Z,30.46
2023-07-18T14:38:50.488Z,30.47
2023-07-18T14:40:30.977Z,30.4
2023-07-18T14:42:11.458Z,29.91
2023-07-18T14:43:51.873Z,29.46
2023-07-18T14:45:32.350Z,29.07
2023-07-18T14:47:12.783Z,28.71
2023-07-18T14:48:53.220Z,28.44
2023-07-18T14:50:33.675Z,28.35
2023-07-18T14:52:14.137Z,28.2
2023-07-18T14:53:54.520Z,28.04
2023-07-18T14:55:35.392Z,27.85
2023-07-18T14:57:15.456Z,27.94
2023-07-18T14:58:55.850Z,28.03
2023-07-18T15:00:36.249Z,28.25
2023-07-18T15:02:16.550Z,28.58
2023-07-18T15:03:57.079Z,28.4
2023-07-18T15:05:37.441Z,28.3
2023-07-18T15:07:17.850Z,28.43
2023-07-18T15:08:58.215Z,28.43
2023-07-18T15:10:38.664Z,28.3
2023-07-18T15:12:19.053Z,28.23
2023-07-18T15:13:59.516Z,28.56
2023-07-18T15:15:40.058Z,28.85
2023-07-18T15:17:20.407Z,29.26
2023-07-18T15:19:00.783Z,29.64
2023-07-18T15:20:41.247Z,30.08
2023-07-18T15:22:21.703Z,30.48
2023-07-18T15:24:02.128Z,30.66
2023-07-18T15:25:42.518Z,30.48
2023-07-18T15:27:22.982Z,30.29
2023-07-18T15:29:03.255Z,30.37
2023-07-18T15:30:43.658Z,30.56
2023-07-18T15:32:24.067Z,30.69
2023-07-18T15:34:04.541Z,30.87
2023-07-18T15:35:44.956Z,30.97
2023-07-18T15:37:25.437Z,31.15
2023-07-18T15:39:05.765Z,31.12
2023-07-18T15:40:46.090Z,31.2
2023-07-18T15:42:26.481Z,31.17
2023-07-18T15:44:06.867Z,31.1
2023-07-18T15:45:47.443Z,30.97
2023-07-18T15:47:27.813Z,30.46
2023-07-18T15:49:08.209Z,30.01
2023-07-18T15:50:48.741Z,29.58
2023-07-18T15:52:29.154Z,29.27
2023-07-18T15:54:09.615Z,28.99
2023-07-18T15:55:51.701Z,28.65
2023-07-18T15:57:30.515Z,28.38
2023-07-18T15:59:11.023Z,28.44
2023-07-18T16:00:51.478Z,28.69
2023-07-18T16:02:33.047Z,29
2023-07-18T16:04:12.289Z,29.23
2023-07-18T16:05:52.703Z,29.23
2023-07-18T16:07:33.168Z,29.24
2023-07-18T16:09:13.579Z,29.54
2023-07-18T16:10:54.115Z,29.75
2023-07-18T16:12:34.594Z,29.84
2023-07-18T16:14:15.091Z,29.85
2023-07-18T16:15:55.496Z,29.78
2023-07-18T16:17:35.975Z,29.88
2023-07-18T16:19:16.362Z,30.04
2023-07-18T16:20:56.831Z,30.05
2023-07-18T16:22:37.391Z,30.06
2023-07-18T16:24:17.760Z,30.25
2023-07-18T16:25:58.236Z,30.42
2023-07-18T16:27:38.637Z,30.4
2023-07-18T16:29:18.917Z,30.11
2023-07-18T16:30:59.433Z,30.06
2023-07-18T16:32:39.882Z,30.05
2023-07-18T16:34:20.198Z,29.92
2023-07-18T16:36:00.624Z,29.67
2023-07-18T16:37:41.087Z,29.29
2023-07-18T16:39:21.535Z,28.95
2023-07-18T16:41:02.021Z,28.76
2023-07-18T16:42:42.434Z,28.72
2023-07-18T16:44:22.916Z,28.71
2023-07-18T16:46:03.443Z,28.96
2023-07-18T16:47:43.963Z,29.23
2023-07-18T16:49:24.307Z,29.33
2023-07-18T16:51:04.846Z,29.44
2023-07-18T16:52:45.272Z,29.53
2023-07-18T16:54:25.697Z,29.78
2023-07-18T16:56:06.187Z,29.57
2023-07-18T16:57:46.648Z,29.4
2023-07-18T16:59:27.093Z,29.26
2023-07-18T17:01:07.555Z,29.34
2023-07-18T17:02:48.141Z,29.51
2023-07-18T17:04:28.587Z,29.63
2023-07-18T17:06:09.013Z,29.58
2023-07-18T17:07:49.420Z,29.48
2023-07-18T17:09:29.728Z,29.6
2023-07-18T17:11:10.299Z,29.57
2023-07-18T17:12:50.681Z,29.68
2023-07-18T17:14:31.153Z,29.68
2023-07-18T17:16:11.769Z,29.5
2023-07-18T17:17:52.133Z,29.21
2023-07-18T17:21:13.176Z,28.98
2023-07-18T17:22:53.673Z,28.82
2023-07-18T17:24:34.083Z,28.73
2023-07-18T17:26:14.490Z,28.62
2023-07-18T17:27:54.790Z,28.54
2023-07-18T17:29:35.088Z,28.45
2023-07-18T17:31:15.489Z,28.47
2023-07-18T17:32:55.898Z,28.44
2023-07-18T17:34:36.309Z,28.37
2023-07-18T17:36:16.782Z,28.33
2023-07-18T17:37:57.133Z,28.18
2023-07-18T17:39:37.629Z,28.08
2023-07-18T17:41:18.346Z,28.14
2023-07-18T17:42:58.541Z,28.17
2023-07-18T17:44:39.045Z,28.13
2023-07-18T17:46:22.588Z,28.1
2023-07-18T17:47:59.915Z,28.1
2023-07-18T17:49:40.296Z,28.07
2023-07-18T17:51:21.073Z,28.01
2023-07-18T17:53:01.187Z,27.92
2023-07-18T17:54:41.686Z,27.75
2023-07-18T17:56:22.236Z,27.66
2023-07-18T17:58:02.543Z,27.63
2023-07-18T17:59:43.093Z,27.58
2023-07-18T18:01:23.680Z,27.52
2023-07-18T18:03:03.918Z,27.46
2023-07-18T18:04:44.226Z,27.46
2023-07-18T18:06:24.692Z,27.38
2023-07-18T18:08:05.048Z,27.31
2023-07-18T18:09:45.517Z,27.24
2023-07-18T18:11:25.942Z,27.08
2023-07-18T18:13:06.368Z,27.01
2023-07-18T18:14:46.805Z,27.02
2023-07-18T18:16:27.314Z,27.02
2023-07-18T18:18:07.737Z,27.02
2023-07-18T18:19:48.164Z,26.93
2023-07-18T18:21:28.603Z,26.84
2023-07-18T18:23:13.049Z,26.76
2023-07-18T18:24:49.581Z,26.66
2023-07-18T18:26:30.087Z,26.6
2023-07-18T18:28:10.542Z,26.59
2023-07-18T18:29:50.942Z,26.54
2023-07-18T18:31:34.366Z,26.57
2023-07-18T18:33:11.784Z,26.53
2023-07-18T18:35:06.203Z,26.44
2023-07-18T18:36:32.702Z,26.36
2023-07-18T18:38:13.161Z,26.21
2023-07-18T18:39:53.619Z,26.04
2023-07-18T18:41:34.106Z,25.88
2023-07-18T18:43:14.577Z,25.7
2023-07-18T18:44:54.992Z,25.6
2023-07-18T18:46:35.524Z,25.47
2023-07-18T18:48:15.902Z,25.29
2023-07-18T18:49:56.232Z,25.1
2023-07-18T18:51:36.589Z,24.96
2023-07-18T18:53:18.200Z,24.79
2023-07-18T18:55:08.697Z,24.64
2023-07-18T18:56:38.037Z,24.42
2023-07-18T18:58:18.494Z,24.19
2023-07-18T18:59:58.933Z,23.9
2023-07-18T19:01:39.540Z,23.58
2023-07-18T19:03:19.959Z,23.37
2023-07-18T19:05:00.371Z,23.17
2023-07-18T19:06:40.889Z,23.01
2023-07-18T19:08:21.316Z,22.74
2023-07-18T19:10:01.742Z,22.52
2023-07-18T19:11:42.274Z,22.29
2023-07-18T19:13:22.611Z,22.16
2023-07-18T19:15:03.129Z,21.94
2023-07-18T19:16:43.480Z,21.71
2023-07-18T19:18:23.979Z,21.5
2023-07-18T19:20:04.367Z,21.3
2023-07-18T19:21:44.896Z,21.1
2023-07-18T19:23:25.314Z,20.82
2023-07-18T19:25:05.766Z,20.67
2023-07-18T19:26:46.217Z,20.48
2023-07-18T19:28:26.709Z,20.36
2023-07-18T19:30:07.193Z,20.13
2023-07-18T19:31:47.704Z,19.86
2023-07-18T19:33:28.110Z,19.71
2023-07-18T19:35:08.537Z,19.5
2023-07-18T19:36:48.843Z,19.3
2023-07-18T19:38:29.160Z,19.13
2023-07-18T19:40:09.612Z,18.93
2023-07-18T19:41:50.063Z,18.75
2023-07-18T19:43:30.484Z,18.67
2023-07-18T19:45:10.943Z,18.65
2023-07-18T19:46:51.527Z,18.46
2023-07-18T19:48:31.833Z,18.38
2023-07-18T19:50:12.264Z,18.31
2023-07-18T19:51:52.637Z,18.15
2023-07-18T19:53:36.081Z,17.91
2023-07-18T19:55:13.515Z,17.72
2023-07-18T19:56:53.787Z,17.56
2023-07-18T19:58:34.135Z,17.39
2023-07-18T20:00:14.519Z,17.29
2023-07-18T20:01:55.049Z,17.15
2023-07-18T20:03:47.946Z,17.07
2023-07-18T20:05:16.047Z,16.96
2023-07-18T20:06:56.414Z,16.84
2023-07-18T20:08:36.857Z,16.75
2023-07-18T20:10:17.305Z,16.67
2023-07-18T20:11:57.732Z,16.56
2023-07-18T20:13:38.124Z,16.52
2023-07-18T20:15:18.532Z,16.57
2023-07-18T20:16:59.041Z,16.5
2023-07-18T20:18:39.473Z,16.4
2023-07-18T20:20:19.834Z,16.3
2023-07-18T20:22:00.210Z,16.15
2023-07-18T20:23:40.645Z,15.99
2023-07-18T20:25:21.094Z,15.86
2023-07-18T20:27:01.535Z,15.75
2023-07-18T20:28:41.956Z,15.72
2023-07-18T20:30:22.313Z,15.68
2023-07-18T20:32:02.855Z,15.65
2023-07-18T20:33:43.661Z,15.64
2023-07-18T20:35:23.855Z,15.64
2023-07-18T20:37:04.264Z,15.5
2023-07-18T20:38:44.723Z,15.43
2023-07-18T20:40:25.178Z,15.26
2023-07-18T20:42:05.625Z,15.13
2023-07-18T20:43:45.952Z,15.02
2023-07-18T20:45:26.284Z,14.9
2023-07-18T20:47:06.529Z,14.8
2023-07-18T20:48:47.029Z,14.71
2023-07-18T20:50:27.439Z,14.62
2023-07-18T20:52:07.886Z,14.67
2023-07-18T20:53:48.305Z,14.59
2023-07-18T20:55:28.746Z,14.49
2023-07-18T20:57:09.264Z,14.49
2023-07-18T20:58:49.773Z,14.45
2023-07-18T21:00:30.152Z,14.42
2023-07-18T21:02:10.671Z,14.31
2023-07-18T21:03:51.179Z,14.21
2023-07-18T21:05:31.531Z,14.17
2023-07-18T21:07:11.933Z,14.19
2023-07-18T21:08:52.239Z,14.17
2023-07-18T21:10:32.583Z,14.04
2023-07-18T21:12:13.006Z,14.02
2023-07-18T21:13:53.498Z,13.96
2023-07-18T21:15:34.013Z,13.96
2023-07-18T21:17:14.394Z,13.92
2023-07-18T21:18:54.821Z,13.89
2023-07-18T21:20:35.279Z,13.84
2023-07-18T21:22:15.685Z,13.89
2023-07-18T21:23:56.049Z,13.83
2023-07-18T21:25:36.456Z,13.75
2023-07-18T21:27:17.040Z,13.65
2023-07-18T21:29:04.746Z,13.58
2023-07-18T21:30:38.030Z,13.52
2023-07-18T21:32:18.368Z,13.48
2023-07-18T21:33:58.635Z,13.39
2023-07-18T21:35:38.917Z,13.35
2023-07-18T21:37:19.335Z,13.24
2023-07-18T21:38:59.778Z,13.15
2023-07-18T21:40:40.216Z,13.14
2023-07-18T21:42:20.754Z,13.15
2023-07-18T21:44:01.253Z,13.17
2023-07-18T21:45:41.817Z,13.13
2023-07-18T21:47:22.164Z,13.14